createdAt,value
2019-03-13T00:02:49.982Z,2.4
2019-03-13T00:07:55.349Z,2.3
2019-03-13T00:13:01.138Z,2.4
2019-03-13T00:18:06.377Z,2.2
2019-03-13T00:23:12.353Z,2.2
2019-03-13T00:28:18.304Z,2.3
2019-03-13T00:33:23.691Z,2.2
2019-03-13T00:38:27.513Z,2.2
2019-03-13T00:43:33.313Z,2.3
2019-03-13T00:48:38.942Z,2.3
2019-03-13T00:53:44.008Z,2.4
2019-03-13T00:58:49.879Z,2.1
2019-03-13T01:03:55.664Z,2
2019-03-13T01:09:00.950Z,2.2
2019-03-13T01:14:06.823Z,2.1
2019-03-13T01:19:12.023Z,2.1
2019-03-13T01:24:17.084Z,2.2
2019-03-13T01:29:22.636Z,1.9
2019-03-13T01:34:28.959Z,2.1
2019-03-13T01:39:34.307Z,2.1
2019-03-13T01:44:41.744Z,1.9
2019-03-13T01:49:48.099Z,1.8
2019-03-13T01:54:53.181Z,2
2019-03-13T01:59:58.666Z,2
2019-03-13T02:05:04.917Z,1.7
2019-03-13T02:10:09.970Z,1.7
2019-03-13T02:15:15.105Z,1.9
2019-03-13T02:20:20.667Z,1.9
2019-03-13T02:25:25.946Z,1.8
2019-03-13T02:30:31.978Z,1.7
2019-03-13T02:35:37.208Z,1.7
2019-03-13T02:40:42.658Z,1.8
2019-03-13T02:45:47.917Z,1.8
2019-03-13T02:50:53.739Z,1.7
2019-03-13T02:55:58.916Z,1.8
2019-03-13T03:01:04.823Z,1.7
2019-03-13T03:06:09.991Z,1.7
2019-03-13T03:11:15.435Z,1.6
2019-03-13T03:16:21.085Z,1.7
2019-03-13T03:21:26.837Z,1.6
2019-03-13T03:26:31.918Z,1.7
2019-03-13T03:31:37.192Z,1.5
2019-03-13T03:36:43.474Z,1.6
2019-03-13T03:41:49.462Z,1.6
2019-03-13T03:46:53.649Z,1.7
2019-03-13T03:51:59.100Z,1.6
2019-03-13T03:57:04.664Z,1.6
2019-03-13T04:02:10.108Z,1.5
2019-03-13T04:07:15.950Z,1.5
2019-03-13T04:12:21.731Z,1.6
2019-03-13T04:17:27.310Z,1.5
2019-03-13T04:22:32.996Z,1.5
2019-03-13T04:27:37.940Z,1.6
2019-03-13T04:32:42.658Z,1.3
2019-03-13T04:37:47.895Z,1.5
2019-03-13T04:42:53.129Z,1.2
2019-03-13T04:47:58.332Z,1.3
2019-03-13T04:53:04.208Z,1.3
2019-03-13T04:58:09.375Z,1.4
2019-03-13T05:03:13.698Z,1.3
2019-03-13T05:08:19.372Z,1.3
2019-03-13T05:13:25.033Z,1.4
2019-03-13T05:18:30.912Z,1.4
2019-03-13T05:23:36.212Z,1.2
2019-03-13T05:28:42.083Z,1.3
2019-03-13T05:33:46.019Z,1.2
2019-03-13T05:38:51.359Z,1.4
2019-03-13T05:43:56.928Z,1.3
2019-03-13T05:49:01.953Z,1.5
2019-03-13T05:54:07.679Z,1.5
2019-03-13T05:59:13.603Z,1.5
2019-03-13T06:04:19.045Z,1.9
2019-03-13T06:09:26.777Z,1.6
2019-03-13T06:14:32.145Z,1.6
2019-03-13T06:19:37.495Z,1.5
2019-03-13T06:24:42.637Z,1.8
2019-03-13T06:29:47.624Z,1.7
2019-03-13T06:34:52.867Z,1.6
2019-03-13T06:39:58.451Z,1.8
2019-03-13T06:45:03.572Z,1.7
2019-03-13T06:50:08.481Z,1.8
2019-03-13T06:55:13.810Z,1.5
2019-03-13T07:00:19.392Z,1.5
2019-03-13T07:05:24.330Z,1.6
2019-03-13T07:10:30.411Z,1.5
2019-03-13T07:15:36.789Z,1.3
2019-03-13T07:20:42.461Z,1.4
2019-03-13T07:25:48.648Z,1.7
2019-03-13T07:30:53.884Z,1.6
2019-03-13T07:35:59.170Z,1.4
2019-03-13T07:41:03.602Z,1.5
2019-03-13T07:46:09.583Z,1.3
2019-03-13T07:51:15.265Z,1.2
2019-03-13T07:56:20.856Z,0.9
2019-03-13T08:01:26.589Z,1.1
2019-03-13T08:06:32.768Z,1
2019-03-13T08:11:37.912Z,1
2019-03-13T08:16:43.591Z,0.8
2019-03-13T08:21:49.258Z,0.9
2019-03-13T08:26:54.940Z,0.8
2019-03-13T08:32:01.066Z,0.8
2019-03-13T08:37:06.620Z,0.7
2019-03-13T08:42:12.466Z,0.8
2019-03-13T08:47:18.503Z,0.8
2019-03-13T08:52:23.498Z,0.7
2019-03-13T08:57:28.769Z,0.8
2019-03-13T09:02:33.711Z,0.9
2019-03-13T09:07:39.369Z,0.9
2019-03-13T09:12:45.270Z,1
2019-03-13T09:17:51.321Z,1
2019-03-13T09:22:57.301Z,1.2
2019-03-13T09:28:01.442Z,1
2019-03-13T09:33:07.312Z,1.1
2019-03-13T09:38:13.172Z,1.1
2019-03-13T09:43:18.347Z,1.4
2019-03-13T09:48:22.657Z,1.1
2019-03-13T09:53:28.227Z,1.1
2019-03-13T09:58:33.591Z,1
2019-03-13T10:03:39.539Z,1.1
2019-03-13T10:08:46.467Z,1.1
2019-03-13T10:13:51.204Z,1
2019-03-13T10:18:57.092Z,1.1
2019-03-13T10:24:02.393Z,1.2
2019-03-13T10:29:08.524Z,1.2
2019-03-13T10:34:14.187Z,1.3
2019-03-13T10:39:19.864Z,1.4
2019-03-13T10:44:25.552Z,1.3
2019-03-13T10:49:32.115Z,1.3
2019-03-13T10:54:37.776Z,1.4
2019-03-13T10:59:43.516Z,1.3
2019-03-13T11:04:48.823Z,1.2
2019-03-13T11:09:54.809Z,1.3
2019-03-13T11:15:00.434Z,1.2
2019-03-13T11:20:05.523Z,1.4
2019-03-13T11:25:11.109Z,1.3
2019-03-13T11:30:17.173Z,1.2
2019-03-13T11:35:25.604Z,1.2
2019-03-13T11:40:31.886Z,1.3
2019-03-13T11:45:38.166Z,1.2
2019-03-13T11:50:44.145Z,1.2
2019-03-13T11:55:50.432Z,1.1
2019-03-13T12:00:56.537Z,1.1
2019-03-13T12:06:01.573Z,1.3
2019-03-13T12:11:08.343Z,1.1
2019-03-13T12:16:14.341Z,1.2
2019-03-13T12:21:20.609Z,1.1
2019-03-13T12:26:26.324Z,1.1
2019-03-13T12:31:32.298Z,1.3
2019-03-13T12:36:37.622Z,1.1
2019-03-13T12:41:45.797Z,1.2
2019-03-13T12:46:51.510Z,1.2
2019-03-13T12:51:56.803Z,1.3
2019-03-13T12:57:02.743Z,1.6
2019-03-13T13:02:08.925Z,1.6
2019-03-13T13:07:14.094Z,1.6
2019-03-13T13:12:19.896Z,1.7
2019-03-13T13:17:24.872Z,1.7
2019-03-13T13:22:30.558Z,1.7
2019-03-13T13:27:35.837Z,1.5
2019-03-13T13:32:41.822Z,1.5
2019-03-13T13:37:47.787Z,1.6
2019-03-13T13:42:53.831Z,4.4
2019-03-13T13:47:59.454Z,4.8
2019-03-13T13:53:05.421Z,4.8
2019-03-13T13:58:11.097Z,4.2
2019-03-13T14:03:16.770Z,3.9
2019-03-13T14:08:22.209Z,4
2019-03-13T14:13:27.593Z,3.4
2019-03-13T14:18:33.458Z,3.6
2019-03-13T14:23:39.219Z,3.3
2019-03-13T14:28:44.593Z,2.6
2019-03-13T14:33:50.331Z,3.2
2019-03-13T14:38:55.834Z,2.7
2019-03-13T14:44:01.554Z,3.2
2019-03-13T14:49:06.869Z,4.7
2019-03-13T14:54:12.038Z,4.5
2019-03-13T14:59:17.270Z,3.9
2019-03-13T15:04:23.552Z,4
2019-03-13T15:09:29.356Z,4
2019-03-13T15:14:35.019Z,9.1
2019-03-13T15:19:41.168Z,5.8
2019-03-13T15:24:47.235Z,4.8
2019-03-13T15:29:52.589Z,4.5
2019-03-13T15:34:58.484Z,4.3
2019-03-13T15:40:05.277Z,3.9
2019-03-13T15:45:11.792Z,4.4
2019-03-13T15:50:21.681Z,4.3
2019-03-13T15:55:27.712Z,3.8
2019-03-13T16:00:32.858Z,4.3
2019-03-13T16:05:38.328Z,3.9
2019-03-13T16:10:43.342Z,3.3
2019-03-13T16:15:48.759Z,3.8
2019-03-13T16:20:54.683Z,3.5
2019-03-13T16:26:00.769Z,3.2
2019-03-13T16:31:01.166Z,3.5
2019-03-13T16:36:06.439Z,3.4
2019-03-13T16:41:11.733Z,3.5
2019-03-13T16:46:18.204Z,3.3
2019-03-13T16:51:23.937Z,3.2
2019-03-13T16:56:29.385Z,3.2
2019-03-13T17:01:35.281Z,2.9
2019-03-13T17:06:41.599Z,3.1
2019-03-13T17:11:47.620Z,3.2
2019-03-13T17:16:53.408Z,3.4
2019-03-13T17:21:58.852Z,3
2019-03-13T17:27:04.474Z,2.9
2019-03-13T17:32:10.208Z,3.5
2019-03-13T17:37:15.356Z,3.6
2019-03-13T17:42:20.415Z,3.9
2019-03-13T17:47:29.679Z,3.4
2019-03-13T17:52:34.989Z,3.1
2019-03-13T17:57:40.510Z,3.4
2019-03-13T18:02:45.821Z,3
2019-03-13T18:07:50.915Z,3.4
2019-03-13T18:12:56.076Z,3
2019-03-13T18:18:00.205Z,3
2019-03-13T18:23:04.764Z,3.2
2019-03-13T18:28:14.588Z,3.3
2019-03-13T18:33:20.201Z,3.2
2019-03-13T18:38:26.341Z,3.1
2019-03-13T18:43:31.310Z,3
2019-03-13T18:48:37.495Z,3.1
2019-03-13T18:53:43.294Z,4.7
2019-03-13T18:58:48.941Z,7.6
2019-03-13T19:03:54.948Z,6.2
2019-03-13T19:09:00.835Z,5.3
2019-03-13T19:14:06.051Z,4.9
2019-03-13T19:19:12.228Z,4.5
2019-03-13T19:24:17.893Z,4.1
2019-03-13T19:29:23.743Z,4.3
2019-03-13T19:34:28.932Z,4.1
2019-03-13T19:39:34.065Z,4.3
2019-03-13T19:44:39.651Z,3.7
2019-03-13T19:49:40.248Z,3.8
2019-03-13T19:54:46.180Z,3.9
2019-03-13T19:59:52.656Z,3.6
2019-03-13T20:04:57.901Z,3.5
2019-03-13T20:10:03.623Z,3.4
2019-03-13T20:15:07.989Z,3.4
2019-03-13T20:20:14.364Z,3.6
2019-03-13T20:25:20.752Z,3.2
2019-03-13T20:30:25.464Z,3.3
2019-03-13T20:35:37.415Z,3.4
2019-03-13T20:40:43.844Z,3.3
2019-03-13T20:45:50.376Z,3.3
2019-03-13T20:56:03.354Z,3.2
2019-03-13T21:01:09.634Z,3.1
2019-03-13T21:06:15.205Z,2.9
2019-03-13T21:11:20.785Z,3.2
2019-03-13T21:16:26.118Z,3.1
2019-03-13T21:21:31.412Z,3.6
2019-03-13T21:26:36.518Z,2.8
2019-03-13T21:31:42.576Z,2.8
2019-03-13T21:36:48.506Z,2.8
2019-03-13T21:41:54.765Z,3.4
2019-03-13T21:47:00.209Z,3.6
2019-03-13T21:52:05.693Z,3.1
2019-03-13T21:57:11.884Z,2.9
2019-03-13T22:02:17.881Z,3.1
2019-03-13T22:07:26.802Z,2.9
2019-03-13T22:12:35.276Z,2.8
2019-03-13T22:17:40.755Z,3.2
2019-03-13T22:22:46.167Z,3
2019-03-13T22:27:50.821Z,2.9
2019-03-13T22:32:56.297Z,2.5
2019-03-13T22:38:02.046Z,2.7
2019-03-13T22:43:07.436Z,2.8
2019-03-13T22:48:12.968Z,2.8
2019-03-13T22:53:19.368Z,2.7
2019-03-13T22:58:25.789Z,2.8
2019-03-13T23:03:31.212Z,2.3
2019-03-13T23:08:36.260Z,2.4
2019-03-13T23:13:41.957Z,2.4
2019-03-13T23:18:46.972Z,2.3
2019-03-13T23:23:52.965Z,2.2
2019-03-13T23:28:58.961Z,2.2
2019-03-13T23:34:04.603Z,2.2
2019-03-13T23:39:10.126Z,2.1
2019-03-13T23:44:15.421Z,2.2
2019-03-13T23:49:20.984Z,2.1
2019-03-13T23:54:26.628Z,2
2019-03-13T23:59:32.545Z,1.9
